Time;durP1;ratioP1;P1;durP2;ratioP2;P2;SDS_P1;SDS_P2;PMS_P1;PMS_P2;Temp;Humidity;BMP_temperature;BMP_pressure;BME280_temperature;BME280_humidity;BME280_pressure;Samples;Min_cycle;Max_cycle;Signal;HPM_P1;HPM_P2
2023/08/08 00:02:19;;;;;;;10.67;3.20;;;14.10;99.90;;;;;;5037229;28;20603;-57
2023/08/08 00:04:50;;;;;;;12.13;3.30;;;14.10;99.90;;;;;;5033878;28;20221;-57
2023/08/08 00:07:21;;;;;;;7.70;3.30;;;14.20;99.90;;;;;;5051455;28;20232;-57
2023/08/08 00:09:49;;;;;;;8.90;3.43;;;14.10;99.90;;;;;;5035255;28;20590;-57
2023/08/08 00:12:17;;;;;;;6.67;3.00;;;14.10;99.90;;;;;;5050589;28;20231;-57
2023/08/08 00:14:46;;;;;;;10.27;2.93;;;14.10;99.90;;;;;;5044969;28;20287;-57
2023/08/08 00:17:14;;;;;;;7.50;3.03;;;14.10;99.90;;;;;;5029003;28;20218;-56
2023/08/08 00:19:42;;;;;;;7.67;3.67;;;14.10;99.90;;;;;;5035711;28;20223;-57
2023/08/08 00:22:12;;;;;;;6.37;2.90;;;14.10;99.90;;;;;;5049835;28;20311;-57
2023/08/08 00:24:40;;;;;;;7.83;3.17;;;14.10;99.90;;;;;;5045693;28;20790;-57
2023/08/08 00:27:09;;;;;;;9.17;3.40;;;14.20;99.90;;;;;;5043651;28;20541;-56
2023/08/08 00:29:37;;;;;;;9.10;2.80;;;14.20;99.90;;;;;;5045339;28;20226;-56
2023/08/08 00:32:06;;;;;;;12.57;3.10;;;14.20;99.90;;;;;;5042930;28;20720;-56
2023/08/08 00:34:34;;;;;;;4.10;2.90;;;14.30;99.90;;;;;;5041437;28;20966;-57
2023/08/08 00:37:02;;;;;;;9.87;3.00;;;14.20;99.90;;;;;;5040313;28;20181;-56
2023/08/08 00:39:32;;;;;;;12.07;3.90;;;14.20;99.90;;;;;;5029030;28;20207;-54
2023/08/08 00:42:00;;;;;;;8.23;3.23;;;14.20;99.90;;;;;;5044248;28;20247;-56
2023/08/08 00:44:29;;;;;;;10.33;3.30;;;14.20;99.90;;;;;;5047169;28;20251;-57
2023/08/08 00:46:58;;;;;;;16.00;3.40;;;14.20;99.90;;;;;;5051770;28;20233;-56
2023/08/08 00:49:26;;;;;;;15.07;3.40;;;14.20;99.90;;;;;;5033941;28;20220;-57
2023/08/08 00:51:54;;;;;;;9.63;3.20;;;14.20;99.90;;;;;;5044182;28;20327;-57
2023/08/08 00:54:23;;;;;;;7.73;3.20;;;14.20;99.90;;;;;;5041580;28;20193;-55
2023/08/08 00:56:53;;;;;;;6.17;3.40;;;14.20;99.90;;;;;;5050678;28;20209;-55
2023/08/08 00:59:22;;;;;;;6.80;2.97;;;14.20;99.90;;;;;;5047465;28;20258;-55
2023/08/08 01:01:51;;;;;;;14.43;3.87;;;14.20;99.90;;;;;;5031363;28;20299;-57
2023/08/08 01:04:19;;;;;;;8.23;3.27;;;14.20;99.90;;;;;;5044182;28;20220;-55
2023/08/08 01:06:56;;;;;;;8.83;3.43;;;14.20;99.90;;;;;;5040248;28;20204;-56
2023/08/08 01:09:30;;;;;;;11.97;4.07;;;14.20;99.90;;;;;;5045680;28;20223;-57
2023/08/08 01:12:01;;;;;;;14.73;3.50;;;14.20;99.90;;;;;;5037986;28;20279;-55
2023/08/08 01:14:33;;;;;;;14.20;2.97;;;14.20;99.90;;;;;;5039252;28;20232;-56
2023/08/08 01:17:01;;;;;;;14.87;3.50;;;14.20;99.90;;;;;;5039340;28;20299;-57
2023/08/08 01:19:32;;;;;;;15.03;3.67;;;14.20;99.90;;;;;;5048473;28;20222;-58
2023/08/08 01:22:05;;;;;;;16.30;3.83;;;14.20;99.90;;;;;;5031649;28;20654;-56
2023/08/08 01:24:37;;;;;;;13.90;3.77;;;14.20;99.90;;;;;;5048503;28;20193;-57
2023/08/08 01:27:07;;;;;;;11.93;4.13;;;14.10;99.90;;;;;;5047104;28;20316;-57
2023/08/08 01:29:35;;;;;;;10.10;3.70;;;14.10;99.90;;;;;;5039934;28;20227;-57
2023/08/08 01:32:04;;;;;;;14.50;3.70;;;14.10;99.90;;;;;;5045961;28;20359;-57
2023/08/08 01:34:32;;;;;;;11.63;4.07;;;14.20;99.90;;;;;;5041717;28;20224;-57
2023/08/08 01:37:10;;;;;;;12.17;3.83;;;14.10;99.90;;;;;;5043937;28;20517;-57
2023/08/08 01:39:41;;;;;;;14.57;3.80;;;14.10;99.90;;;;;;5044515;28;20188;-57
2023/08/08 01:42:12;;;;;;;9.43;3.77;;;14.10;99.90;;;;;;5044943;28;20685;-57
2023/08/08 01:44:42;;;;;;;14.47;3.73;;;14.10;99.90;;;;;;5043759;28;20224;-57
2023/08/08 01:47:11;;;;;;;6.87;3.60;;;14.10;99.90;;;;;;5042494;28;20222;-57
2023/08/08 01:49:39;;;;;;;11.70;3.60;;;14.10;99.90;;;;;;5046036;28;20220;-57
2023/08/08 01:52:07;;;;;;;17.83;4.60;;;14.10;99.90;;;;;;5036601;28;20233;-56
2023/08/08 01:54:36;;;;;;;17.17;4.20;;;14.10;99.90;;;;;;5040519;28;20193;-56
2023/08/08 01:57:06;;;;;;;13.77;4.00;;;14.00;99.90;;;;;;5042396;28;20213;-56
2023/08/08 01:59:34;;;;;;;12.33;3.90;;;14.10;99.90;;;;;;5048535;28;20221;-56
2023/08/08 02:02:02;;;;;;;12.87;4.53;;;14.00;99.90;;;;;;5047744;28;20243;-56
2023/08/08 02:04:31;;;;;;;12.07;4.33;;;14.00;99.90;;;;;;5035566;28;20221;-56
2023/08/08 02:06:59;;;;;;;10.07;3.77;;;14.00;99.90;;;;;;5041545;28;20236;-56
2023/08/08 02:09:28;;;;;;;9.27;4.03;;;14.00;99.90;;;;;;5046834;28;20288;-56
2023/08/08 02:11:56;;;;;;;10.50;3.80;;;14.00;99.90;;;;;;5046312;28;20247;-56
2023/08/08 02:14:26;;;;;;;13.53;4.20;;;14.00;99.90;;;;;;5046940;28;20304;-56
2023/08/08 02:16:55;;;;;;;17.03;3.97;;;13.90;99.90;;;;;;5041635;28;20267;-57
2023/08/08 02:19:23;;;;;;;8.37;4.00;;;13.90;99.90;;;;;;5043298;28;20220;-56
2023/08/08 02:21:51;;;;;;;9.83;3.63;;;14.00;99.90;;;;;;5044502;28;20197;-55
2023/08/08 02:24:20;;;;;;;10.77;4.20;;;13.90;99.90;;;;;;5035691;28;20191;-54
2023/08/08 02:26:48;;;;;;;14.53;4.13;;;13.90;99.90;;;;;;5035286;28;20226;-55
2023/08/08 02:29:16;;;;;;;18.03;4.30;;;13.90;99.90;;;;;;5045546;28;20310;-56
2023/08/08 02:31:46;;;;;;;15.97;4.37;;;13.90;99.90;;;;;;5051905;28;20308;-56
2023/08/08 02:34:15;;;;;;;13.67;4.07;;;13.90;99.90;;;;;;5048336;28;20376;-55
2023/08/08 02:36:43;;;;;;;12.77;3.90;;;13.90;99.90;;;;;;5048864;28;20188;-57
2023/08/08 02:39:13;;;;;;;9.03;3.63;;;13.90;99.90;;;;;;5052510;28;20217;-56
2023/08/08 02:41:42;;;;;;;9.37;4.20;;;13.90;99.90;;;;;;5051124;28;20599;-53
2023/08/08 02:44:11;;;;;;;11.57;4.23;;;13.90;99.90;;;;;;5034689;28;20581;-57
2023/08/08 02:46:39;;;;;;;16.10;4.93;;;13.80;99.90;;;;;;5047263;28;20240;-57
2023/08/08 02:49:09;;;;;;;15.07;4.27;;;13.80;99.90;;;;;;5045772;28;20243;-57
2023/08/08 02:51:37;;;;;;;14.87;4.23;;;13.80;99.90;;;;;;5051359;28;20198;-54
2023/08/08 02:54:06;;;;;;;16.50;4.43;;;13.80;99.90;;;;;;5046991;28;20226;-53
2023/08/08 02:56:34;;;;;;;18.17;4.27;;;13.70;99.90;;;;;;5044348;28;20232;-57
2023/08/08 02:59:02;;;;;;;21.67;4.90;;;13.70;99.90;;;;;;5052229;28;20217;-55
2023/08/08 03:01:31;;;;;;;10.50;4.63;;;13.70;99.90;;;;;;5043110;28;20571;-56
2023/08/08 03:03:59;;;;;;;14.33;4.20;;;13.70;99.90;;;;;;5045311;28;20186;-58
2023/08/08 03:06:29;;;;;;;18.80;4.60;;;13.60;99.90;;;;;;5030011;28;20198;-57
2023/08/08 03:08:57;;;;;;;16.33;4.67;;;13.70;99.90;;;;;;5047912;28;20316;-56
2023/08/08 03:11:25;;;;;;;12.73;4.33;;;13.70;99.90;;;;;;5045163;28;20772;-57
2023/08/08 03:13:54;;;;;;;13.43;4.80;;;13.60;99.90;;;;;;5043782;28;20793;-56
2023/08/08 03:16:22;;;;;;;8.80;4.20;;;13.60;99.90;;;;;;5042670;28;20231;-58
2023/08/08 03:18:51;;;;;;;22.10;4.97;;;13.60;99.90;;;;;;5040249;28;20197;-57
2023/08/08 03:21:19;;;;;;;12.37;4.57;;;13.60;99.90;;;;;;5033325;28;20224;-55
2023/08/08 03:23:49;;;;;;;14.33;5.17;;;13.50;99.90;;;;;;5049528;28;20768;-56
2023/08/08 03:26:17;;;;;;;13.37;4.83;;;13.60;99.90;;;;;;5045421;28;20223;-56
2023/08/08 03:28:50;;;;;;;17.03;4.90;;;13.50;99.90;;;;;;5033103;28;20229;-57
2023/08/08 03:31:18;;;;;;;23.30;6.00;;;13.50;99.90;;;;;;5047348;28;20248;-57
2023/08/08 03:33:47;;;;;;;18.50;5.20;;;13.50;99.90;;;;;;5048974;28;20200;-56
2023/08/08 03:36:16;;;;;;;13.87;5.20;;;13.50;99.90;;;;;;5052988;28;20382;-55
2023/08/08 03:38:45;;;;;;;14.97;4.77;;;13.50;99.90;;;;;;5050596;28;20227;-55
2023/08/08 03:41:15;;;;;;;12.90;4.80;;;13.50;99.90;;;;;;5045577;28;20232;-57
2023/08/08 03:43:44;;;;;;;15.17;5.93;;;13.50;99.90;;;;;;5044506;28;20221;-56
2023/08/08 03:46:12;;;;;;;17.00;5.33;;;13.50;99.90;;;;;;5039497;28;20248;-57
2023/08/08 03:48:41;;;;;;;19.53;5.43;;;13.50;99.90;;;;;;5052392;28;20663;-57
2023/08/08 03:51:09;;;;;;;14.47;5.27;;;13.50;99.90;;;;;;5045360;28;20300;-56
2023/08/08 03:53:37;;;;;;;13.47;4.90;;;13.50;99.90;;;;;;5044833;28;20316;-55
2023/08/08 03:56:07;;;;;;;25.53;5.33;;;13.60;99.90;;;;;;5043522;28;20228;-57
2023/08/08 03:58:37;;;;;;;14.60;4.80;;;13.50;99.90;;;;;;5049443;28;20220;-56
2023/08/08 04:01:05;;;;;;;11.30;4.40;;;13.50;99.90;;;;;;5049257;28;20643;-56
2023/08/08 04:03:33;;;;;;;21.73;5.40;;;13.50;99.90;;;;;;5048151;28;20203;-57
2023/08/08 04:06:02;;;;;;;17.73;4.93;;;13.50;99.90;;;;;;5035528;28;20233;-54
2023/08/08 04:08:30;;;;;;;15.37;5.13;;;13.40;99.90;;;;;;5039483;28;20320;-57
2023/08/08 04:10:59;;;;;;;19.77;5.27;;;13.40;99.90;;;;;;5042742;28;20225;-56
2023/08/08 04:13:27;;;;;;;20.43;5.57;;;13.40;99.90;;;;;;5034972;28;20685;-57
2023/08/08 04:15:58;;;;;;;15.83;5.60;;;13.40;99.90;;;;;;5045885;28;20204;-57
2023/08/08 04:18:26;;;;;;;17.60;5.33;;;13.40;99.90;;;;;;5051956;28;20276;-54
2023/08/08 04:20:55;;;;;;;13.70;5.00;;;13.40;99.90;;;;;;5044898;28;20213;-56
2023/08/08 04:23:25;;;;;;;17.27;5.33;;;13.50;99.90;;;;;;5046310;28;20237;-57
2023/08/08 04:25:54;;;;;;;15.33;5.27;;;13.40;99.90;;;;;;5048083;28;20270;-57
2023/08/08 04:28:22;;;;;;;19.53;5.97;;;13.40;99.90;;;;;;5042275;28;20245;-55
2023/08/08 04:30:50;;;;;;;18.97;5.23;;;13.40;99.90;;;;;;5044892;28;20213;-57
2023/08/08 04:33:20;;;;;;;21.97;5.70;;;13.40;99.90;;;;;;5047919;28;20220;-55
2023/08/08 04:35:48;;;;;;;15.67;5.03;;;13.50;99.90;;;;;;5029424;28;20695;-54
2023/08/08 04:38:17;;;;;;;17.13;5.50;;;13.40;99.90;;;;;;5051481;28;20217;-56
2023/08/08 04:40:45;;;;;;;15.27;5.30;;;13.50;99.90;;;;;;5046904;28;20627;-57
2023/08/08 04:43:13;;;;;;;18.90;5.00;;;13.50;99.90;;;;;;5045744;28;20229;-55
2023/08/08 04:45:41;;;;;;;14.67;5.77;;;13.50;99.90;;;;;;5048046;28;20296;-58
2023/08/08 04:48:10;;;;;;;17.23;4.87;;;13.50;99.90;;;;;;5050287;28;20228;-55
2023/08/08 04:50:40;;;;;;;17.37;4.60;;;13.50;99.90;;;;;;5042039;28;20224;-56
2023/08/08 04:53:09;;;;;;;14.43;4.70;;;13.60;99.90;;;;;;5045380;28;20579;-57
2023/08/08 04:55:37;;;;;;;13.30;4.90;;;13.60;99.90;;;;;;5044442;28;20217;-56
2023/08/08 04:58:08;;;;;;;13.73;4.80;;;13.60;99.90;;;;;;5048437;28;20220;-56
2023/08/08 05:00:37;;;;;;;16.97;5.20;;;13.60;99.90;;;;;;5036719;28;20189;-56
2023/08/08 05:03:05;;;;;;;14.10;4.93;;;13.60;99.90;;;;;;5043422;28;20226;-56
2023/08/08 05:05:34;;;;;;;16.10;4.50;;;13.70;99.90;;;;;;5042585;28;20243;-56
2023/08/08 05:08:04;;;;;;;13.37;4.53;;;13.60;99.90;;;;;;5041218;28;20227;-57
2023/08/08 05:10:33;;;;;;;20.47;5.07;;;13.70;99.90;;;;;;5046354;28;20224;-57
2023/08/08 05:13:01;;;;;;;18.77;4.73;;;13.80;99.90;;;;;;5046184;28;20250;-55
2023/08/08 05:15:29;;;;;;;22.07;4.90;;;13.80;99.90;;;;;;5050692;28;20295;-55
2023/08/08 05:17:59;;;;;;;16.20;5.10;;;13.80;99.90;;;;;;5036975;28;20220;-57
2023/08/08 05:20:27;;;;;;;19.90;4.90;;;13.90;99.90;;;;;;5055171;28;20704;-55
2023/08/08 05:22:56;;;;;;;12.13;4.20;;;14.00;99.90;;;;;;5041799;28;20216;-57
2023/08/08 05:25:25;;;;;;;15.37;4.40;;;14.10;99.90;;;;;;5043589;28;20709;-55
2023/08/08 05:27:54;;;;;;;14.33;4.30;;;14.30;99.90;;;;;;5050136;28;20708;-57
2023/08/08 05:30:22;;;;;;;13.23;4.10;;;14.30;99.90;;;;;;5044374;28;20293;-56
2023/08/08 05:32:51;;;;;;;10.60;3.77;;;14.40;99.90;;;;;;5047731;28;20217;-57
2023/08/08 05:35:19;;;;;;;14.57;4.27;;;14.40;99.90;;;;;;5047695;28;20221;-53
2023/08/08 05:37:50;;;;;;;14.80;4.33;;;14.50;99.90;;;;;;5028213;28;20236;-57
2023/08/08 05:40:18;;;;;;;14.23;4.37;;;14.50;99.90;;;;;;5048136;28;20584;-56
2023/08/08 05:42:48;;;;;;;17.07;4.20;;;14.50;99.90;;;;;;5048169;28;20204;-57
2023/08/08 05:45:16;;;;;;;11.47;4.10;;;14.50;99.90;;;;;;5048618;28;20220;-57
2023/08/08 05:47:44;;;;;;;17.77;4.53;;;14.40;99.90;;;;;;5030435;28;20229;-56
2023/08/08 05:50:13;;;;;;;16.00;4.70;;;14.50;99.90;;;;;;5045905;28;20236;-56
2023/08/08 05:52:41;;;;;;;14.77;4.07;;;14.60;99.90;;;;;;5047967;28;20546;-56
2023/08/08 05:55:09;;;;;;;17.73;4.60;;;14.70;99.90;;;;;;5040350;28;20197;-57
2023/08/08 05:57:38;;;;;;;12.43;3.60;;;14.90;99.90;;;;;;5038381;28;20202;-57
2023/08/08 06:00:11;;;;;;;14.70;3.83;;;15.10;99.90;;;;;;5044988;28;20245;-58
2023/08/08 06:02:39;;;;;;;13.77;3.90;;;15.20;99.90;;;;;;5042744;28;20235;-57
2023/08/08 06:05:09;;;;;;;16.27;3.80;;;15.50;99.90;;;;;;5045443;28;20616;-58
2023/08/08 06:07:37;;;;;;;12.27;4.00;;;15.70;99.90;;;;;;5044040;28;20786;-57
2023/08/08 06:10:06;;;;;;;13.73;3.67;;;15.80;99.90;;;;;;5053831;28;20213;-54
2023/08/08 06:12:35;;;;;;;13.33;3.70;;;15.80;99.90;;;;;;5047845;28;20189;-57
2023/08/08 06:15:03;;;;;;;13.07;3.63;;;15.90;99.90;;;;;;5038864;28;20596;-57
2023/08/08 06:17:33;;;;;;;10.47;3.10;;;15.80;99.90;;;;;;5032949;28;20827;-56
2023/08/08 06:20:02;;;;;;;10.00;3.00;;;16.00;99.90;;;;;;5047007;28;20228;-58
2023/08/08 06:22:31;;;;;;;12.23;3.33;;;16.10;99.90;;;;;;5045357;28;20223;-56
2023/08/08 06:24:59;;;;;;;13.17;3.13;;;16.10;99.90;;;;;;5043680;28;20198;-56
2023/08/08 06:27:28;;;;;;;8.77;3.27;;;16.00;99.90;;;;;;5034510;28;20196;-54
2023/08/08 06:29:56;;;;;;;12.37;3.47;;;16.10;99.90;;;;;;5041124;28;20231;-56
2023/08/08 06:32:25;;;;;;;12.90;3.77;;;16.30;99.90;;;;;;5045337;28;20232;-57
2023/08/08 06:34:55;;;;;;;13.50;3.47;;;16.40;99.90;;;;;;5033417;28;20630;-56
2023/08/08 06:37:23;;;;;;;8.13;3.40;;;16.40;99.90;;;;;;5036397;28;20273;-57
2023/08/08 06:39:51;;;;;;;10.00;3.13;;;16.40;99.90;;;;;;5038032;28;20189;-55
2023/08/08 06:42:20;;;;;;;14.60;3.80;;;16.50;99.90;;;;;;5036129;28;20197;-56
2023/08/08 06:44:48;;;;;;;12.27;3.13;;;16.70;99.90;;;;;;5047533;28;20225;-57
2023/08/08 06:47:17;;;;;;;13.03;3.13;;;16.70;99.90;;;;;;5039364;28;20222;-56
2023/08/08 06:49:45;;;;;;;8.07;3.03;;;16.80;99.90;;;;;;5045852;28;20223;-56
2023/08/08 06:52:15;;;;;;;14.30;3.30;;;16.90;99.90;;;;;;5046479;28;20235;-56
2023/08/08 06:54:43;;;;;;;9.73;3.23;;;17.10;99.90;;;;;;5037209;28;20196;-57
2023/08/08 06:57:11;;;;;;;7.87;3.03;;;17.00;99.90;;;;;;5047864;28;20229;-56
2023/08/08 06:59:39;;;;;;;9.37;3.13;;;16.90;99.90;;;;;;5050012;28;20223;-55
2023/08/08 07:02:08;;;;;;;8.07;3.30;;;16.90;99.90;;;;;;5044607;28;20228;-55
2023/08/08 07:04:37;;;;;;;6.93;3.50;;;16.90;99.90;;;;;;5041390;28;20219;-57
2023/08/08 07:07:05;;;;;;;13.63;3.07;;;16.80;99.90;;;;;;5040212;28;20196;-58
2023/08/08 07:09:37;;;;;;;5.67;2.93;;;16.80;99.90;;;;;;5041566;28;20193;-56
2023/08/08 07:12:06;;;;;;;8.53;2.80;;;16.80;99.90;;;;;;5036565;28;20220;-57
2023/08/08 07:14:34;;;;;;;10.83;3.83;;;16.80;99.90;;;;;;5042355;28;20307;-56
2023/08/08 07:17:03;;;;;;;11.77;2.70;;;16.80;99.90;;;;;;5046308;28;20227;-58
2023/08/08 07:19:32;;;;;;;7.40;3.30;;;16.90;99.90;;;;;;5042071;28;20225;-57
2023/08/08 07:22:00;;;;;;;11.17;3.17;;;16.90;99.90;;;;;;5046142;28;20211;-58
2023/08/08 07:24:29;;;;;;;5.53;2.83;;;17.10;99.90;;;;;;5050211;28;20657;-57
2023/08/08 07:27:00;;;;;;;9.83;3.37;;;17.20;99.90;;;;;;5032388;28;20236;-57
2023/08/08 07:29:28;;;;;;;8.17;3.00;;;17.20;99.90;;;;;;5046998;28;20247;-57
2023/08/08 07:31:58;;;;;;;12.27;2.97;;;17.30;99.90;;;;;;5052437;28;20235;-57
2023/08/08 07:34:27;;;;;;;9.30;2.93;;;17.20;99.90;;;;;;5047922;28;20345;-57
2023/08/08 07:36:57;;;;;;;9.53;2.90;;;17.20;99.90;;;;;;5047402;28;20195;-56
2023/08/08 07:39:25;;;;;;;5.03;3.20;;;17.30;99.90;;;;;;5044876;28;21584;-58
2023/08/08 07:41:54;;;;;;;8.97;3.60;;;17.40;99.90;;;;;;5054327;28;20217;-56
2023/08/08 07:44:24;;;;;;;11.70;3.33;;;17.50;98.90;;;;;;5050234;28;20224;-56
2023/08/08 07:46:52;;;;;;;13.13;3.53;;;17.60;97.00;;;;;;5046577;28;20217;-57
2023/08/08 07:49:20;;;;;;;5.63;3.30;;;17.60;99.90;;;;;;5048349;28;20247;-57
2023/08/08 07:51:48;;;;;;;12.13;3.30;;;17.70;99.90;;;;;;5046708;28;20205;-57
2023/08/08 07:54:17;;;;;;;6.03;3.17;;;17.70;98.40;;;;;;5050405;28;20217;-54
2023/08/08 07:56:45;;;;;;;14.93;3.60;;;17.80;96.20;;;;;;5039233;28;20274;-57
2023/08/08 07:59:13;;;;;;;8.60;2.83;;;17.80;92.70;;;;;;5049233;28;20224;-58
2023/08/08 08:01:43;;;;;;;10.07;3.10;;;17.80;93.60;;;;;;5043366;28;20588;-57
2023/08/08 08:04:12;;;;;;;8.00;3.17;;;17.70;95.90;;;;;;5051573;28;20626;-58
2023/08/08 08:06:40;;;;;;;5.90;2.90;;;17.80;96.70;;;;;;5051298;28;20285;-57
2023/08/08 08:09:11;;;;;;;8.80;3.00;;;17.90;94.40;;;;;;5037297;28;20272;-56
2023/08/08 08:11:39;;;;;;;10.50;3.17;;;18.00;91.30;;;;;;5045726;28;20692;-57
2023/08/08 08:14:07;;;;;;;6.53;3.17;;;18.20;91.60;;;;;;5039165;28;20245;-58
2023/08/08 08:16:36;;;;;;;9.40;3.10;;;18.30;82.20;;;;;;5039728;28;20228;-57
2023/08/08 08:19:06;;;;;;;6.67;2.97;;;18.70;72.70;;;;;;5048296;28;20254;-55
2023/08/08 08:21:34;;;;;;;6.37;2.93;;;18.90;71.60;;;;;;5030664;28;20505;-57
2023/08/08 08:24:03;;;;;;;9.17;2.73;;;18.90;51.30;;;;;;5044831;28;20315;-58
2023/08/08 08:26:31;;;;;;;4.23;2.83;;;18.80;53.70;;;;;;5051168;28;20690;-57
2023/08/08 08:29:00;;;;;;;6.57;3.00;;;18.80;54.00;;;;;;5045118;28;20315;-57
2023/08/08 08:31:29;;;;;;;5.13;2.67;;;19.00;50.00;;;;;;5038226;28;20231;-58
2023/08/08 08:33:57;;;;;;;4.57;2.70;;;19.10;29.20;;;;;;5054163;28;20197;-55
2023/08/08 08:36:27;;;;;;;4.83;3.03;;;19.20;22.60;;;;;;5044278;28;20198;-56
2023/08/08 08:38:55;;;;;;;8.60;2.60;;;19.30;19.10;;;;;;5047488;28;20240;-57
2023/08/08 08:41:27;;;;;;;5.40;2.33;;;19.40;1.00;;;;;;5047826;28;20226;-57
2023/08/08 08:43:55;;;;;;;7.17;3.00;;;19.50;99.90;;;;;;5048107;28;20304;-58
2023/08/08 08:46:27;;;;;;;4.40;2.60;;;19.60;99.90;;;;;;5048266;28;20660;-56
2023/08/08 08:48:56;;;;;;;3.63;2.57;;;19.60;99.90;;;;;;5049865;28;20220;-57
2023/08/08 08:51:25;;;;;;;4.40;2.20;;;19.60;99.90;;;;;;5042690;28;20212;-56
2023/08/08 08:53:55;;;;;;;10.47;2.77;;;19.60;99.90;;;;;;5046090;28;20228;-58
2023/08/08 08:56:23;;;;;;;8.33;2.90;;;19.80;99.90;;;;;;5026101;28;20680;-59
2023/08/08 08:58:52;;;;;;;4.93;2.53;;;20.00;99.90;;;;;;5043200;28;20232;-57
2023/08/08 09:01:22;;;;;;;3.90;2.37;;;20.00;99.90;;;;;;5052094;28;20223;-58
2023/08/08 09:03:50;;;;;;;4.63;2.20;;;20.00;99.90;;;;;;5048807;28;20567;-57
2023/08/08 09:06:20;;;;;;;7.03;2.20;;;20.30;99.90;;;;;;5045007;28;20272;-57
2023/08/08 09:08:49;;;;;;;4.23;2.30;;;20.50;99.90;;;;;;5050550;28;20222;-58
2023/08/08 09:11:22;;;;;;;5.30;2.70;;;20.60;99.90;;;;;;5049847;28;20216;-57
2023/08/08 09:13:52;;;;;;;3.47;2.30;;;20.80;99.90;;;;;;5042816;28;20319;-57
2023/08/08 09:16:21;;;;;;;3.50;2.20;;;21.10;99.90;;;;;;5041624;28;20768;-58
2023/08/08 09:18:50;;;;;;;3.93;2.23;;;21.20;99.90;;;;;;5045720;28;20711;-57
2023/08/08 09:21:19;;;;;;;6.10;2.30;;;21.60;99.90;;;;;;5043485;28;20223;-58
2023/08/08 09:23:48;;;;;;;5.20;2.40;;;22.00;99.90;;;;;;5042314;28;20243;-58
2023/08/08 09:26:17;;;;;;;4.40;2.30;;;22.90;99.90;;;;;;5038558;28;20266;-59
2023/08/08 09:28:47;;;;;;;6.43;2.33;;;23.40;99.90;;;;;;5043580;28;20240;-58
2023/08/08 09:31:15;;;;;;;2.90;2.40;;;23.40;99.90;;;;;;5036985;28;20863;-58
2023/08/08 09:33:45;;;;;;;3.83;2.30;;;23.00;99.90;;;;;;5043083;28;20239;-58
2023/08/08 09:36:15;;;;;;;4.60;2.17;;;22.40;99.90;;;;;;5042189;28;20758;-58
2023/08/08 09:38:43;;;;;;;4.87;2.60;;;21.70;99.90;;;;;;5049285;28;20571;-55
2023/08/08 09:41:12;;;;;;;2.63;2.40;;;21.30;99.90;;;;;;5044377;28;20230;-58
2023/08/08 09:43:40;;;;;;;2.30;2.10;;;21.10;99.90;;;;;;5034746;28;20582;-57
2023/08/08 09:46:11;;;;;;;6.10;2.30;;;20.90;99.90;;;;;;5047172;28;20292;-57
2023/08/08 09:48:41;;;;;;;5.50;2.57;;;20.70;99.90;;;;;;5047633;28;20197;-57
2023/08/08 09:51:10;;;;;;;2.47;2.07;;;20.30;99.90;;;;;;5049809;28;20248;-57
2023/08/08 09:53:39;;;;;;;5.17;2.33;;;20.00;99.90;;;;;;5028016;28;20216;-56
2023/08/08 09:56:08;;;;;;;2.70;2.50;;;19.90;99.90;;;;;;5045525;28;20228;-56
2023/08/08 09:58:37;;;;;;;2.73;2.30;;;19.90;99.90;;;;;;5045092;28;20316;-59
2023/08/08 10:01:06;;;;;;;2.70;2.50;;;20.10;99.90;;;;;;5033465;28;20186;-58
2023/08/08 10:03:37;;;;;;;2.97;2.40;;;20.40;99.90;;;;;;5048212;28;20235;-56
2023/08/08 10:06:06;;;;;;;3.77;2.23;;;20.30;99.90;;;;;;5031414;28;20244;-58
2023/08/08 10:08:34;;;;;;;3.30;2.40;;;20.30;99.90;;;;;;5047688;28;20217;-55
2023/08/08 10:11:05;;;;;;;3.57;2.33;;;20.30;99.90;;;;;;5044113;28;20216;-56
2023/08/08 10:13:35;;;;;;;2.47;2.27;;;20.20;99.90;;;;;;5035902;28;20235;-56
2023/08/08 10:16:08;;;;;;;4.23;2.40;;;20.00;99.90;;;;;;5040951;28;20216;-58
2023/08/08 10:18:39;;;;;;;4.10;2.00;;;20.20;99.90;;;;;;5050173;28;20190;-58
2023/08/08 10:21:09;;;;;;;5.47;2.00;;;21.10;99.90;;;;;;5043498;28;20223;-58
2023/08/08 10:23:38;;;;;;;3.27;2.27;;;22.50;99.90;;;;;;5010521;28;20225;-58
2023/08/08 10:26:18;;;;;;;3.50;2.33;;;23.40;99.90;;;;;;5041924;28;20305;-58
2023/08/08 10:28:55;;;;;;;2.13;1.90;;;23.30;99.90;;;;;;5042417;28;20224;-58
2023/08/08 10:31:27;;;;;;;1.97;1.83;;;22.80;99.90;;;;;;5044463;28;20220;-57
2023/08/08 10:34:07;;;;;;;1.90;1.80;;;22.20;99.90;;;;;;5043747;28;20547;-57
2023/08/08 10:36:45;;;;;;;4.63;2.30;;;21.90;99.90;;;;;;5037729;28;20218;-58
2023/08/08 10:39:17;;;;;;;2.50;2.10;;;21.40;99.90;;;;;;5042659;28;20223;-57
2023/08/08 10:41:47;;;;;;;3.77;2.07;;;21.40;99.90;;;;;;5038129;28;20786;-58
2023/08/08 10:44:23;;;;;;;2.27;2.10;;;21.20;99.90;;;;;;5045436;28;20226;-58
2023/08/08 10:46:53;;;;;;;3.43;2.07;;;21.10;99.90;;;;;;5044609;28;20620;-57
2023/08/08 10:49:24;;;;;;;2.77;1.90;;;21.10;99.90;;;;;;5047488;28;20230;-58
2023/08/08 10:51:52;;;;;;;3.33;2.20;;;20.90;99.90;;;;;;5043723;28;20217;-57
2023/08/08 10:54:27;;;;;;;2.40;2.17;;;21.00;99.90;;;;;;5032434;28;20201;-56
2023/08/08 10:56:57;;;;;;;4.90;2.30;;;21.00;99.90;;;;;;5033757;28;20224;-57
2023/08/08 10:59:29;;;;;;;4.30;1.87;;;20.70;99.90;;;;;;5018862;28;20560;-56
2023/08/08 11:02:00;;;;;;;4.60;1.93;;;20.70;99.90;;;;;;5030993;28;20652;-58
2023/08/08 11:04:32;;;;;;;2.40;2.20;;;20.80;99.90;;;;;;5026375;28;20310;-57
2023/08/08 11:07:01;;;;;;;3.57;2.30;;;20.80;99.90;;;;;;5032811;28;20206;-58
2023/08/08 11:09:30;;;;;;;3.67;2.30;;;20.80;99.90;;;;;;5029153;28;20281;-58
2023/08/08 11:11:58;;;;;;;2.80;2.00;;;20.90;99.90;;;;;;5036377;28;20228;-57
2023/08/08 11:14:27;;;;;;;3.10;2.20;;;21.00;99.90;;;;;;5033832;28;20636;-55
2023/08/08 11:16:55;;;;;;;2.47;1.97;;;21.00;99.90;;;;;;5026845;28;20253;-57
2023/08/08 11:19:24;;;;;;;2.13;1.90;;;21.10;99.90;;;;;;5035656;28;20214;-56
2023/08/08 11:21:54;;;;;;;2.50;2.30;;;21.40;99.90;;;;;;5035498;28;20191;-57
2023/08/08 11:24:22;;;;;;;2.50;2.27;;;21.40;99.90;;;;;;5033096;28;20194;-57
2023/08/08 11:26:51;;;;;;;6.67;2.47;;;21.10;99.90;;;;;;5032566;28;20226;-58
2023/08/08 11:29:20;;;;;;;3.17;1.83;;;21.10;99.90;;;;;;5030473;28;20224;-58
2023/08/08 11:31:49;;;;;;;3.60;1.93;;;21.20;99.90;;;;;;5033916;28;20248;-57
2023/08/08 11:34:18;;;;;;;4.43;2.00;;;21.40;99.90;;;;;;5028897;28;20238;-56
2023/08/08 11:36:48;;;;;;;3.13;1.70;;;21.60;99.90;;;;;;5035129;28;20219;-58
2023/08/08 11:39:18;;;;;;;2.43;1.77;;;21.70;99.90;;;;;;5027264;28;20615;-56
2023/08/08 11:41:46;;;;;;;2.07;1.70;;;21.90;99.90;;;;;;5026811;28;20713;-58
2023/08/08 11:44:15;;;;;;;2.80;1.93;;;21.90;99.90;;;;;;5031265;28;20236;-58
2023/08/08 11:46:46;;;;;;;2.00;1.67;;;21.80;99.90;;;;;;5031750;28;20309;-56
2023/08/08 11:49:16;;;;;;;3.47;1.53;;;21.80;99.90;;;;;;5036833;28;20642;-58
2023/08/08 11:51:46;;;;;;;2.83;1.60;;;21.90;99.90;;;;;;5035414;28;20250;-57
2023/08/08 11:54:14;;;;;;;3.40;1.73;;;21.90;99.90;;;;;;5031332;28;20227;-57
2023/08/08 11:56:44;;;;;;;1.57;1.47;;;21.90;99.90;;;;;;5032790;28;20231;-58
2023/08/08 11:59:13;;;;;;;2.37;1.70;;;22.00;99.90;;;;;;5026078;28;20695;-57
2023/08/08 12:01:43;;;;;;;2.87;1.70;;;22.20;99.90;;;;;;5044918;28;20219;-57
2023/08/08 12:04:12;;;;;;;1.80;1.70;;;22.20;99.90;;;;;;5039889;28;20237;-57
2023/08/08 12:06:42;;;;;;;1.80;1.60;;;22.10;99.90;;;;;;5036202;28;20223;-57
2023/08/08 12:09:13;;;;;;;1.40;1.40;;;21.90;99.90;;;;;;5029404;28;20760;-57
2023/08/08 12:11:41;;;;;;;3.17;1.70;;;21.80;99.90;;;;;;5035733;28;20723;-58
2023/08/08 12:14:11;;;;;;;3.10;1.60;;;21.90;99.90;;;;;;5026579;28;20298;-57
2023/08/08 12:16:40;;;;;;;1.80;1.57;;;22.10;99.90;;;;;;5031586;28;20625;-58
2023/08/08 12:19:11;;;;;;;2.70;1.60;;;22.10;99.90;;;;;;5026853;28;20287;-56
2023/08/08 12:21:39;;;;;;;3.30;1.40;;;21.90;99.90;;;;;;5028173;28;20218;-57
2023/08/08 12:24:08;;;;;;;1.20;1.20;;;21.90;99.90;;;;;;5028102;28;20360;-57
2023/08/08 12:26:37;;;;;;;1.70;1.50;;;21.80;99.90;;;;;;5033303;28;20223;-57
2023/08/08 12:29:05;;;;;;;1.73;1.47;;;21.70;99.90;;;;;;5016409;28;20227;-56
2023/08/08 12:31:35;;;;;;;1.70;1.53;;;21.60;99.90;;;;;;5031650;28;20225;-57
2023/08/08 12:34:04;;;;;;;1.70;1.20;;;21.60;99.90;;;;;;5032404;28;20286;-56
2023/08/08 12:36:32;;;;;;;1.50;1.40;;;21.90;99.90;;;;;;5028054;28;20223;-57
2023/08/08 12:39:04;;;;;;;1.77;1.60;;;22.00;99.90;;;;;;5026753;28;20241;-56
2023/08/08 12:41:34;;;;;;;1.93;1.50;;;21.90;99.90;;;;;;5031778;28;20213;-56
2023/08/08 12:44:07;;;;;;;1.37;1.27;;;22.00;99.90;;;;;;5030758;28;20221;-56
2023/08/08 12:46:48;;;;;;;2.83;1.30;;;21.90;99.90;;;;;;5028397;28;20271;-57
2023/08/08 12:49:18;;;;;;;1.63;1.47;;;21.80;99.90;;;;;;5030724;28;20358;-57
2023/08/08 12:51:51;;;;;;;1.50;1.40;;;21.50;99.90;;;;;;5029017;28;20300;-55
2023/08/08 12:54:29;;;;;;;1.80;1.40;;;21.40;99.90;;;;;;5027445;28;20215;-57